createdAt,value
2022-08-22T00:00:15.386Z,20.87
2022-08-22T00:02:55.205Z,22.08
2022-08-22T00:03:08.534Z,23.91
2022-08-22T00:03:10.106Z,23.26
2022-08-22T00:03:17.501Z,20.99
2022-08-22T00:05:51.929Z,21.32
2022-08-22T00:08:30.789Z,21.49
2022-08-22T00:11:05.458Z,21.20
2022-08-22T00:14:01.648Z,21.29
2022-08-22T00:16:42.080Z,21.26
2022-08-22T00:19:29.699Z,20.90
2022-08-22T00:22:02.468Z,21.20
2022-08-22T00:24:39.183Z,21.13
2022-08-22T00:27:15.215Z,20.96
2022-08-22T00:29:51.820Z,20.95
2022-08-22T00:32:41.133Z,21.07
2022-08-22T00:35:22.132Z,20.95
2022-08-22T00:38:15.211Z,20.84
2022-08-22T00:41:00.225Z,20.51
2022-08-22T00:44:00.976Z,20.92
2022-08-22T00:46:44.106Z,21.07
2022-08-22T00:49:13.704Z,20.97
2022-08-22T00:52:13.662Z,20.68
2022-08-22T00:54:52.186Z,20.66
2022-08-22T00:57:40.045Z,20.75
2022-08-22T01:00:23.411Z,20.91
2022-08-22T01:03:11.314Z,20.51
2022-08-22T01:05:40.886Z,20.65
2022-08-22T01:08:32.361Z,20.75
2022-08-22T01:10:58.808Z,20.81
2022-08-22T01:13:57.780Z,20.68
2022-08-22T01:16:54.740Z,20.45
2022-08-22T01:19:44.397Z,20.45
2022-08-22T01:22:32.720Z,20.40
2022-08-22T01:25:26.555Z,20.65
2022-08-22T01:28:05.387Z,20.80
2022-08-22T01:31:03.301Z,20.68
2022-08-22T01:34:01.633Z,20.57
2022-08-22T01:36:49.846Z,21.25
2022-08-22T01:39:34.221Z,21.43
2022-08-22T01:42:16.099Z,21.38
2022-08-22T01:45:14.945Z,20.83
2022-08-22T01:47:54.971Z,20.49
2022-08-22T01:50:23.694Z,20.59
2022-08-22T01:52:50.925Z,20.36
2022-08-22T01:55:30.432Z,20.21
2022-08-22T01:57:59.889Z,20.29
2022-08-22T02:00:34.618Z,20.24
2022-08-22T02:03:08.282Z,20.18
2022-08-22T02:05:40.302Z,19.81
2022-08-22T02:08:31.471Z,20.12
2022-08-22T02:11:06.341Z,20.27
2022-08-22T02:13:46.453Z,20.12
2022-08-22T02:16:38.098Z,20.12
2022-08-22T02:19:13.785Z,20.27
2022-08-22T02:21:42.692Z,20.31
2022-08-22T02:24:24.476Z,20.12
2022-08-22T02:27:21.649Z,20.00
2022-08-22T02:30:00.423Z,19.87
2022-08-22T02:32:35.606Z,19.89
2022-08-22T02:35:18.444Z,20.10
2022-08-22T02:38:03.719Z,20.14
2022-08-22T02:40:32.235Z,20.11
2022-08-22T02:43:01.576Z,20.21
2022-08-22T02:45:38.979Z,20.10
2022-08-22T02:48:17.718Z,19.79
2022-08-22T02:51:01.751Z,20.00
2022-08-22T02:53:55.863Z,19.86
2022-08-22T02:56:39.432Z,19.88
2022-08-22T02:59:37.119Z,19.69
2022-08-22T03:02:27.705Z,19.82
2022-08-22T03:05:16.322Z,19.49
2022-08-22T03:07:59.990Z,19.86
2022-08-22T03:10:30.349Z,19.64
2022-08-22T03:13:16.530Z,19.61
2022-08-22T03:15:48.605Z,19.76
2022-08-22T03:18:40.426Z,19.69
2022-08-22T03:21:15.820Z,19.55
2022-08-22T03:23:43.710Z,19.71
2022-08-22T03:26:29.621Z,19.48
2022-08-22T03:29:03.382Z,19.26
2022-08-22T03:31:31.262Z,19.45
2022-08-22T03:34:23.694Z,19.61
2022-08-22T03:37:14.890Z,19.68
2022-08-22T03:39:44.494Z,19.80
2022-08-22T03:42:34.522Z,19.90
2022-08-22T03:45:35.337Z,19.58
2022-08-22T03:48:38.778Z,19.13
2022-08-22T03:51:26.990Z,19.20
2022-08-22T03:54:12.158Z,19.51
2022-08-22T03:57:29.946Z,19.54
2022-08-22T04:00:38.238Z,19.41
2022-08-22T04:03:05.501Z,19.13
2022-08-22T04:05:54.273Z,19.23
2022-08-22T04:08:26.278Z,19.04
2022-08-22T04:11:03.770Z,18.74
2022-08-22T04:13:36.422Z,18.93
2022-08-22T04:16:14.623Z,18.85
2022-08-22T04:19:02.967Z,18.94
2022-08-22T04:21:32.877Z,19.17
2022-08-22T04:24:11.582Z,19.68
2022-08-22T04:26:41.556Z,19.55
2022-08-22T04:29:25.562Z,19.45
2022-08-22T04:32:20.743Z,19.56
2022-08-22T04:34:52.248Z,19.18
2022-08-22T04:37:31.594Z,19.21
2022-08-22T04:40:15.836Z,19.18
2022-08-22T04:42:47.242Z,19.24
2022-08-22T04:45:24.457Z,19.25
2022-08-22T04:48:19.249Z,19.18
2022-08-22T04:51:12.103Z,19.24
2022-08-22T04:54:06.651Z,19.28
2022-08-22T04:56:43.805Z,19.48
2022-08-22T04:59:16.811Z,19.53
2022-08-22T05:01:43.344Z,19.56
2022-08-22T05:04:14.331Z,19.01
2022-08-22T05:06:46.063Z,18.95
2022-08-22T05:09:17.204Z,19.18
2022-08-22T05:11:46.388Z,18.88
2022-08-22T05:14:27.987Z,19.39
2022-08-22T05:16:56.518Z,19.51
2022-08-22T05:19:37.309Z,19.51
2022-08-22T05:22:13.709Z,19.64
2022-08-22T05:24:43.485Z,19.82
2022-08-22T05:27:13.663Z,20.06
2022-08-22T05:29:43.348Z,20.22
2022-08-22T05:32:20.916Z,20.27
2022-08-22T05:34:48.348Z,20.50
2022-08-22T05:37:24.858Z,20.71
2022-08-22T05:39:55.163Z,20.94
2022-08-22T05:42:34.232Z,21.12
2022-08-22T05:45:02.665Z,21.17
2022-08-22T05:47:47.909Z,21.43
2022-08-22T05:50:46.398Z,21.39
2022-08-22T05:53:19.081Z,21.53
2022-08-22T05:56:05.062Z,21.50
2022-08-22T05:58:49.847Z,21.63
2022-08-22T06:01:39.216Z,21.54
2022-08-22T06:04:11.794Z,21.51
2022-08-22T06:07:06.983Z,21.14
2022-08-22T06:09:56.048Z,21.53
2022-08-22T06:12:39.503Z,21.60
2022-08-22T06:15:23.230Z,21.36
2022-08-22T06:18:05.061Z,21.64
2022-08-22T06:20:36.095Z,21.91
2022-08-22T06:23:04.008Z,22.06
2022-08-22T06:25:33.731Z,21.83
2022-08-22T06:28:07.857Z,22.14
2022-08-22T06:30:35.695Z,22.18
2022-08-22T06:33:07.209Z,22.14
2022-08-22T06:36:08.294Z,22.12
2022-08-22T06:39:11.496Z,22.55
2022-08-22T06:41:49.397Z,22.50
2022-08-22T06:44:20.016Z,22.70
2022-08-22T06:46:48.155Z,22.83
2022-08-22T06:49:15.462Z,22.70
2022-08-22T06:51:42.403Z,22.89
2022-08-22T06:54:16.306Z,23.18
2022-08-22T06:56:45.611Z,23.10
2022-08-22T06:59:17.927Z,23.33
2022-08-22T07:04:25.951Z,23.39
2022-08-22T07:06:54.848Z,23.78
2022-08-22T07:09:38.855Z,24.19
2022-08-22T07:12:12.078Z,24.51
2022-08-22T07:14:42.911Z,24.76
2022-08-22T07:17:17.109Z,24.53
2022-08-22T07:19:49.514Z,24.92
2022-08-22T07:22:24.117Z,25.08
2022-08-22T07:24:54.075Z,25.32
2022-08-22T07:27:30.813Z,25.33
2022-08-22T07:30:04.462Z,25.21
2022-08-22T07:32:43.167Z,24.78
2022-08-22T07:35:33.558Z,25.40
2022-08-22T07:38:16.895Z,25.12
2022-08-22T07:40:46.703Z,25.03
2022-08-22T07:43:38.124Z,26.20
2022-08-22T07:46:23.084Z,26.03
2022-08-22T07:49:34.488Z,26.86
2022-08-22T07:52:10.444Z,27.49
2022-08-22T07:54:43.091Z,27.73
2022-08-22T07:57:14.803Z,28.16
2022-08-22T07:59:52.016Z,28.23
2022-08-22T08:02:19.254Z,27.30
2022-08-22T08:04:49.005Z,27.31
2022-08-22T08:07:17.881Z,27.16
2022-08-22T08:09:50.043Z,27.73
2022-08-22T08:12:19.492Z,28.01
2022-08-22T08:14:50.112Z,28.23
2022-08-22T08:17:32.262Z,28.56
2022-08-22T08:20:02.211Z,29.16
2022-08-22T08:22:29.771Z,28.68
2022-08-22T08:24:58.677Z,28.42
2022-08-22T08:27:59.973Z,28.19
2022-08-22T08:30:40.400Z,28.26
2022-08-22T08:33:25.528Z,28.24
2022-08-22T08:36:02.130Z,27.16
2022-08-22T08:38:32.972Z,27.99
2022-08-22T08:41:26.049Z,28.38
2022-08-22T08:44:01.815Z,29.26
2022-08-22T08:46:55.813Z,29.93
2022-08-22T08:49:42.976Z,28.73
2022-08-22T08:52:18.851Z,29.59
2022-08-22T08:54:55.595Z,30.25
2022-08-22T08:57:44.108Z,30.04
2022-08-22T09:00:20.889Z,31.08
2022-08-22T09:03:07.881Z,31.91
2022-08-22T09:06:13.643Z,32.55
2022-08-22T09:08:57.617Z,33.05
2022-08-22T09:11:44.509Z,33.17
2022-08-22T09:14:37.560Z,33.64
2022-08-22T09:17:16.087Z,33.78
2022-08-22T09:20:02.875Z,34.37
2022-08-22T09:23:17.753Z,34.07
2022-08-22T09:25:53.173Z,33.48
2022-08-22T09:28:41.162Z,33.08
2022-08-22T09:31:32.779Z,35.66
2022-08-22T09:34:35.780Z,39.31
2022-08-22T09:37:02.745Z,42.95
2022-08-22T09:39:49.483Z,43.58
2022-08-22T09:42:38.078Z,46.27
2022-08-22T09:45:38.764Z,48.36
2022-08-22T09:48:15.779Z,50.52
2022-08-22T09:51:31.341Z,48.28
2022-08-22T09:54:07.291Z,50.34
2022-08-22T09:57:01.411Z,52.40
2022-08-22T09:59:50.873Z,53.01
2022-08-22T10:02:30.260Z,54.63
2022-08-22T10:05:40.571Z,56.73
2022-08-22T10:08:28.391Z,55.48
2022-08-22T10:11:09.917Z,57.26
2022-08-22T10:14:00.806Z,55.36
2022-08-22T10:16:43.545Z,57.69
2022-08-22T10:19:31.987Z,58.94
2022-08-22T10:22:22.041Z,59.09
2022-08-22T10:25:00.674Z,60.27
2022-08-22T10:27:52.536Z,60.97
2022-08-22T10:30:22.430Z,60.26
2022-08-22T10:33:14.473Z,59.59
2022-08-22T10:35:52.243Z,60.43
2022-08-22T10:38:28.716Z,61.35
2022-08-22T10:41:09.414Z,60.73
2022-08-22T10:43:59.067Z,61.78
2022-08-22T10:46:42.227Z,61.80
2022-08-22T10:49:37.026Z,62.17
2022-08-22T10:52:16.197Z,63.31
2022-08-22T10:55:12.753Z,60.86
2022-08-22T10:58:02.148Z,60.25
2022-08-22T11:00:33.391Z,62.39
2022-08-22T11:03:09.919Z,60.85
2022-08-22T11:05:43.945Z,62.83
2022-08-22T11:08:35.222Z,62.87
2022-08-22T11:11:39.798Z,62.92
2022-08-22T11:14:13.406Z,62.31
2022-08-22T11:17:02.761Z,62.60
2022-08-22T11:20:22.271Z,63.89
2022-08-22T11:23:12.494Z,63.63
2022-08-22T11:25:52.449Z,63.98
2022-08-22T11:28:58.010Z,63.76
2022-08-22T11:32:10.046Z,62.28
2022-08-22T11:35:01.212Z,62.03
2022-08-22T11:37:56.368Z,62.75
2022-08-22T11:40:38.561Z,63.68
2022-08-22T11:43:18.160Z,61.48
2022-08-22T11:45:51.470Z,61.94
2022-08-22T11:48:25.394Z,60.24
2022-08-22T11:51:24.958Z,60.40
2022-08-22T11:54:12.898Z,60.44
2022-08-22T11:56:45.190Z,60.98
2022-08-22T11:59:22.572Z,61.59
2022-08-22T12:01:55.091Z,61.85
2022-08-22T12:04:33.794Z,61.36
2022-08-22T12:07:20.969Z,59.78
2022-08-22T12:09:52.007Z,55.05
2022-08-22T12:12:48.266Z,52.80
2022-08-22T12:15:36.142Z,52.49
2022-08-22T12:18:40.440Z,51.95
2022-08-22T12:21:36.831Z,46.29
2022-08-22T12:24:23.471Z,43.87
2022-08-22T12:26:49.947Z,42.09
2022-08-22T12:29:34.138Z,40.50
2022-08-22T12:32:28.289Z,37.46
2022-08-22T12:35:03.731Z,36.56
2022-08-22T12:38:00.015Z,35.70
2022-08-22T12:40:29.949Z,36.86
2022-08-22T12:43:12.838Z,37.08
2022-08-22T12:45:50.734Z,36.93
2022-08-22T12:48:29.778Z,36.86
2022-08-22T12:51:20.578Z,37.09
2022-08-22T12:53:53.080Z,37.08
2022-08-22T12:56:29.483Z,36.44
2022-08-22T12:59:08.142Z,34.27
2022-08-22T13:01:43.459Z,34.52
2022-08-22T13:04:32.390Z,34.40
2022-08-22T13:07:30.574Z,35.74
2022-08-22T13:10:21.008Z,35.89
2022-08-22T13:12:50.718Z,35.91
2022-08-22T13:15:53.583Z,36.26
2022-08-22T13:18:30.221Z,35.21
2022-08-22T13:21:00.474Z,35.68
2022-08-22T13:23:39.964Z,34.62
2022-08-22T13:26:34.536Z,35.03
2022-08-22T13:29:27.195Z,34.96
2022-08-22T13:32:00.206Z,34.25
2022-08-22T13:34:40.587Z,34.42
2022-08-22T13:37:26.243Z,34.77
2022-08-22T13:39:55.991Z,34.64
2022-08-22T13:42:27.871Z,34.52
2022-08-22T13:45:02.503Z,34.38
2022-08-22T13:47:31.694Z,33.95
2022-08-22T13:50:19.170Z,34.15
2022-08-22T13:52:55.091Z,33.58
2022-08-22T13:55:31.081Z,33.29
2022-08-22T13:58:19.174Z,33.62
2022-08-22T14:01:00.956Z,34.02
2022-08-22T14:03:57.984Z,34.50
2022-08-22T14:06:41.332Z,34.77
2022-08-22T14:09:44.559Z,34.96
2022-08-22T14:12:50.908Z,35.15
2022-08-22T14:15:33.066Z,34.82
2022-08-22T14:18:30.091Z,34.75
2022-08-22T14:21:26.674Z,34.67
2022-08-22T14:23:57.488Z,34.77
2022-08-22T14:26:33.242Z,34.69
2022-08-22T14:29:08.266Z,34.07
2022-08-22T14:31:35.762Z,33.55
2022-08-22T14:34:10.452Z,33.25
2022-08-22T14:36:55.178Z,32.91
2022-08-22T14:39:38.454Z,32.58
2022-08-22T14:42:19.584Z,32.20
2022-08-22T14:45:08.468Z,31.90
2022-08-22T14:48:09.938Z,31.56
2022-08-22T14:50:43.811Z,31.22
2022-08-22T14:53:11.953Z,30.91
2022-08-22T14:55:40.785Z,30.19
2022-08-22T14:58:26.435Z,29.78
2022-08-22T15:00:56.074Z,29.23
2022-08-22T15:03:33.920Z,28.56
2022-08-22T15:06:02.072Z,28.23
2022-08-22T15:08:30.846Z,27.86
2022-08-22T15:11:08.443Z,27.78
2022-08-22T15:13:36.637Z,27.47
2022-08-22T15:16:17.783Z,27.49
2022-08-22T15:18:51.762Z,27.80
2022-08-22T15:21:24.285Z,28.13
2022-08-22T15:23:54.533Z,28.64
2022-08-22T15:26:34.191Z,28.88
2022-08-22T15:29:09.936Z,29.30
2022-08-22T15:31:39.682Z,29.88
2022-08-22T15:34:21.339Z,30.34
2022-08-22T15:37:01.448Z,30.55
2022-08-22T15:39:57.551Z,30.54
2022-08-22T15:42:31.892Z,30.83
2022-08-22T15:44:59.378Z,30.95
2022-08-22T15:47:41.442Z,30.97
2022-08-22T15:50:29.177Z,30.68
2022-08-22T15:53:09.040Z,29.95
2022-08-22T15:55:37.005Z,29.27
2022-08-22T15:58:07.431Z,29.18
2022-08-22T16:00:43.281Z,28.99
2022-08-22T16:03:32.113Z,29.36
2022-08-22T16:06:07.672Z,29.56
2022-08-22T16:08:43.962Z,29.84
2022-08-22T16:11:33.660Z,30.17
2022-08-22T16:14:24.834Z,30.29
2022-08-22T16:16:54.854Z,30.48
2022-08-22T16:19:25.367Z,30.65
2022-08-22T16:21:51.888Z,30.61
2022-08-22T16:24:18.353Z,30.71
2022-08-22T16:26:46.028Z,30.74
2022-08-22T16:29:18.013Z,30.94
2022-08-22T16:31:48.007Z,31.00
2022-08-22T16:34:17.750Z,31.10
2022-08-22T16:37:08.707Z,31.16
2022-08-22T16:39:47.815Z,31.33
2022-08-22T16:42:17.061Z,31.40
2022-08-22T16:45:02.618Z,31.35
2022-08-22T16:47:41.462Z,31.44
2022-08-22T16:50:23.310Z,31.46
2022-08-22T16:52:52.849Z,31.46
2022-08-22T16:55:28.565Z,31.43
2022-08-22T16:58:14.107Z,31.45
2022-08-22T17:00:49.866Z,31.29
2022-08-22T17:03:19.365Z,31.35
2022-08-22T17:05:45.982Z,31.34
2022-08-22T17:08:25.673Z,31.25
2022-08-22T17:11:17.233Z,31.38
2022-08-22T17:13:46.950Z,31.30
2022-08-22T17:16:35.388Z,31.42
2022-08-22T17:19:25.343Z,31.37
2022-08-22T17:21:57.400Z,31.38
2022-08-22T17:24:35.561Z,31.41
2022-08-22T17:27:19.542Z,31.32
2022-08-22T17:30:10.477Z,30.75
2022-08-22T17:32:59.962Z,30.62
2022-08-22T17:35:40.602Z,30.69
2022-08-22T17:38:19.258Z,30.24
2022-08-22T17:40:59.398Z,30.06
2022-08-22T17:43:48.714Z,30.35
2022-08-22T17:46:34.072Z,30.47
2022-08-22T17:49:25.576Z,30.55
2022-08-22T17:52:01.031Z,30.07
2022-08-22T17:54:33.885Z,29.96
2022-08-22T17:57:22.415Z,30.02
2022-08-22T17:59:56.594Z,29.83
2022-08-22T18:02:47.978Z,29.60
2022-08-22T18:05:21.821Z,29.25
2022-08-22T18:07:48.346Z,29.15
2022-08-22T18:10:14.899Z,29.39
2022-08-22T18:12:44.741Z,28.95
2022-08-22T18:15:20.915Z,29.27
2022-08-22T18:18:17.849Z,29.33
2022-08-22T18:20:50.157Z,29.37
2022-08-22T18:23:40.111Z,29.30
2022-08-22T18:26:27.522Z,29.06
2022-08-22T18:28:55.388Z,28.89
2022-08-22T18:31:46.443Z,28.87
2022-08-22T18:34:40.777Z,28.79
2022-08-22T18:37:17.097Z,28.79
2022-08-22T18:39:51.631Z,28.54
2022-08-22T18:42:31.003Z,28.60
2022-08-22T18:44:57.660Z,28.54
2022-08-22T18:47:35.677Z,28.55
2022-08-22T18:50:30.628Z,28.49
2022-08-22T18:52:57.800Z,28.31
2022-08-22T18:55:30.949Z,28.30
2022-08-22T18:58:17.643Z,28.14
2022-08-22T19:01:09.466Z,27.93
2022-08-22T19:03:57.528Z,27.84
2022-08-22T19:06:42.982Z,27.82
2022-08-22T19:09:27.172Z,27.87
2022-08-22T19:12:23.046Z,27.89
2022-08-22T19:15:11.429Z,27.90
2022-08-22T19:18:04.229Z,27.89
2022-08-22T19:20:51.883Z,27.67
2022-08-22T19:23:43.406Z,27.77
2022-08-22T19:26:37.959Z,27.73
2022-08-22T19:29:30.186Z,27.61
2022-08-22T19:32:01.961Z,27.63
2022-08-22T19:34:32.619Z,27.56
2022-08-22T19:37:32.049Z,27.48
2022-08-22T19:40:07.757Z,27.45
2022-08-22T19:42:36.908Z,27.37
2022-08-22T19:45:26.560Z,27.30
2022-08-22T19:48:10.513Z,27.38
2022-08-22T19:50:39.146Z,27.38
2022-08-22T19:53:11.670Z,27.30
2022-08-22T19:55:38.362Z,27.26
2022-08-22T19:58:31.814Z,27.19
2022-08-22T20:01:20.830Z,27.21
2022-08-22T20:03:53.154Z,27.33
2022-08-22T20:06:43.446Z,27.13
2022-08-22T20:09:32.053Z,27.21
2022-08-22T20:12:28.211Z,26.99
2022-08-22T20:14:55.415Z,27.15
2022-08-22T20:17:25.084Z,27.18
2022-08-22T20:20:17.235Z,27.13
2022-08-22T20:22:49.703Z,27.01
2022-08-22T20:25:42.066Z,27.18
2022-08-22T20:28:25.033Z,27.16
2022-08-22T20:30:57.688Z,27.16
2022-08-22T20:33:30.161Z,27.08
2022-08-22T20:35:59.567Z,26.84
2022-08-22T20:38:39.825Z,27.05
2022-08-22T20:41:22.843Z,27.15
2022-08-22T20:43:53.498Z,27.07
2022-08-22T20:46:53.577Z,27.05
2022-08-22T20:49:28.616Z,27.01
2022-08-22T20:52:07.745Z,26.94
2022-08-22T20:54:40.659Z,26.94
2022-08-22T20:57:17.081Z,26.72
2022-08-22T21:00:12.500Z,26.95
2022-08-22T21:02:42.663Z,27.00
2022-08-22T21:05:22.397Z,26.86
2022-08-22T21:08:06.357Z,26.95
2022-08-22T21:10:54.620Z,27.00
2022-08-22T21:13:39.340Z,27.02
2022-08-22T21:16:17.035Z,26.97
2022-08-22T21:18:46.180Z,26.91
2022-08-22T21:21:20.523Z,26.97
2022-08-22T21:24:01.039Z,26.92
2022-08-22T21:26:30.907Z,26.87
2022-08-22T21:29:12.843Z,26.83
2022-08-22T21:31:48.843Z,26.79
2022-08-22T21:34:28.587Z,26.88
2022-08-22T21:36:59.530Z,26.80
2022-08-22T21:39:37.289Z,26.79
2022-08-22T21:42:03.786Z,26.79
2022-08-22T21:44:40.895Z,26.82
2022-08-22T21:47:30.589Z,26.74
2022-08-22T21:50:18.815Z,26.79
2022-08-22T21:53:02.537Z,26.82
2022-08-22T21:55:29.066Z,26.82
2022-08-22T21:58:35.149Z,26.77
2022-08-22T22:01:03.992Z,26.74
2022-08-22T22:03:36.686Z,26.64
2022-08-22T22:06:05.543Z,26.71
2022-08-22T22:08:33.224Z,26.63
2022-08-22T22:11:02.476Z,26.60
2022-08-22T22:13:31.477Z,26.65
2022-08-22T22:15:58.215Z,26.67
2022-08-22T22:18:27.169Z,26.63
2022-08-22T22:20:54.727Z,26.59
2022-08-22T22:23:22.457Z,26.35
2022-08-22T22:25:50.933Z,26.57
2022-08-22T22:28:24.989Z,26.56
2022-08-22T22:30:53.303Z,26.44
2022-08-22T22:33:22.893Z,26.40
2022-08-22T22:35:50.339Z,26.51
2022-08-22T22:38:20.630Z,26.61
2022-08-22T22:40:50.176Z,26.61
2022-08-22T22:43:16.929Z,26.31
2022-08-22T22:45:43.461Z,26.45
2022-08-22T22:48:10.258Z,26.45
2022-08-22T22:50:40.611Z,26.56
2022-08-22T22:53:08.116Z,26.34
2022-08-22T22:55:36.501Z,26.25
2022-08-22T22:58:08.372Z,26.37
2022-08-22T23:00:37.182Z,26.43
2022-08-22T23:03:06.137Z,26.42
2022-08-22T23:05:33.551Z,26.34
2022-08-22T23:08:01.015Z,26.31
2022-08-22T23:10:30.084Z,26.34
2022-08-22T23:12:56.874Z,26.29
2022-08-22T23:15:23.924Z,26.31
2022-08-22T23:17:50.492Z,25.79
2022-08-22T23:20:17.126Z,25.68
2022-08-22T23:22:50.452Z,25.82
2022-08-22T23:25:17.057Z,25.67
2022-08-22T23:27:43.867Z,25.70
2022-08-22T23:30:11.684Z,25.70
2022-08-22T23:32:38.746Z,25.76
2022-08-22T23:35:05.707Z,25.87
2022-08-22T23:37:32.279Z,25.82
2022-08-22T23:39:58.875Z,26.03
2022-08-22T23:42:25.641Z,26.10
2022-08-22T23:44:52.228Z,26.08
2022-08-22T23:47:18.770Z,25.95
2022-08-22T23:49:45.716Z,24.81
2022-08-22T23:52:13.277Z,25.43
2022-08-22T23:54:40.430Z,25.29
2022-08-22T23:57:11.974Z,25.45
2022-08-22T23:59:46.212Z,25.48
